Okatie, South Carolina
Current Conditions -  °F | °C
As of 8:50 AM on Monday 20 Oct 2014 (Local Time) from KHXD Reporting Station
Clear Clear  
Wind Chill: 64°   Ceiling: Unl
Heat Index: 64°   Visibility: 10mi
Dew Point: 57°   Wind: 6mph
Humidity: 77%   Direction: 10°N
Pressure: 30.14"   Gusts: NA
Location:  32.34°N, 80.86°W
Report Text: KHXD 201250Z 01005KT 10SM SKC 18/14 A3014
Loading
Personal Weather Stations






























Interactive Weather Map
Tropical Storm Tracking
New forecast layout! Learn more

10-Day Weather Forecast

Advertisements
Track Severe Weather on mobile